Time;durP1;ratioP1;P1;durP2;ratioP2;P2;SDS_P1;SDS_P2;PMS_P1;PMS_P2;Temp;Humidity;BMP_temperature;BMP_pressure;BME280_temperature;BME280_humidity;BME280_pressure;Samples;Min_cycle;Max_cycle;Signal;HPM_P1;HPM_P2
2023/08/09 00:01:05;;;;;;;0.30;0.30;;;11.50;99.90;;;;;;6189898;23;20016;-88
2023/08/09 00:03:31;;;;;;;0.90;0.40;;;11.50;99.90;;;;;;6216147;23;20012;-88
2023/08/09 00:05:59;;;;;;;0.30;0.20;;;11.50;99.90;;;;;;6214221;23;20027;-88
2023/08/09 00:08:25;;;;;;;2.20;0.30;;;11.50;99.90;;;;;;6189204;23;20051;-89
2023/08/09 00:10:51;;;;;;;0.30;0.30;;;11.40;99.90;;;;;;6214199;23;20086;-88
2023/08/09 00:13:16;;;;;;;0.98;0.25;;;11.50;99.90;;;;;;6215692;23;20509;-88
2023/08/09 00:15:44;;;;;;;0.52;0.25;;;11.50;99.90;;;;;;6215826;23;20095;-89
2023/08/09 00:18:10;;;;;;;0.57;0.30;;;11.60;99.90;;;;;;6164056;23;20023;-88
2023/08/09 00:20:36;;;;;;;3.70;0.38;;;11.50;99.90;;;;;;6188832;23;20024;-87
2023/08/09 00:23:03;;;;;;;1.65;0.45;;;11.50;99.90;;;;;;6215829;23;20012;-88
2023/08/09 00:25:29;;;;;;;0.60;0.20;;;11.40;99.90;;;;;;6164149;23;20085;-88
2023/08/09 00:27:54;;;;;;;0.70;0.30;;;11.50;99.90;;;;;;6188917;23;20472;-87
2023/08/09 00:30:24;;;;;;;0.77;0.30;;;11.60;99.90;;;;;;6213947;23;20023;-87
2023/08/09 00:32:49;;;;;;;2.55;0.30;;;11.40;99.90;;;;;;6188438;23;20050;-87
2023/08/09 00:35:15;;;;;;;2.63;0.30;;;12.10;99.90;;;;;;6189158;23;20082;-87
2023/08/09 00:37:41;;;;;;;1.30;0.30;;;11.40;99.90;;;;;;6214545;23;20020;-87
2023/08/09 00:40:07;;;;;;;1.45;0.43;;;11.40;99.90;;;;;;6215546;23;20024;-88
2023/08/09 00:42:34;;;;;;;0.85;0.20;;;11.40;99.90;;;;;;6188806;23;20336;-87
2023/08/09 00:45:00;;;;;;;0.70;0.50;;;11.40;99.90;;;;;;6214667;23;20020;-87
2023/08/09 00:47:26;;;;;;;0.55;0.40;;;11.50;99.90;;;;;;6190938;23;20024;-88
2023/08/09 00:49:52;;;;;;;0.65;0.30;;;11.40;99.90;;;;;;6190926;23;20020;-87
2023/08/09 00:52:19;;;;;;;1.38;0.28;;;11.30;99.90;;;;;;6216382;23;20008;-88
2023/08/09 00:54:48;;;;;;;36.38;33.72;;;11.30;99.90;;;;;;6191013;23;20023;-88
2023/08/09 00:57:14;;;;;;;0.88;0.30;;;11.30;99.90;;;;;;6217471;23;20466;-88
2023/08/09 00:59:40;;;;;;;1.58;0.30;;;11.30;99.90;;;;;;6216137;23;20025;-87
2023/08/09 01:02:08;;;;;;;2.25;0.30;;;11.30;99.90;;;;;;6217924;23;20321;-88
2023/08/09 01:04:34;;;;;;;1.30;0.20;;;11.30;99.90;;;;;;6191011;23;20054;-88
2023/08/09 01:07:18;;;;;;;1.77;0.30;;;11.60;99.90;;;;;;6191161;23;20013;-88
2023/08/09 01:09:56;;;;;;;1.10;0.30;;;11.20;99.90;;;;;;6190911;23;20056;-87
2023/08/09 01:12:28;;;;;;;2.25;0.35;;;11.30;99.90;;;;;;6217728;23;20024;-88
2023/08/09 01:15:00;;;;;;;0.40;0.22;;;11.60;99.90;;;;;;6190988;23;20103;-87
2023/08/09 01:17:31;;;;;;;0.57;0.30;;;11.20;99.90;;;;;;6218111;23;20088;-89
2023/08/09 01:19:59;;;;;;;0.50;0.20;;;11.60;99.90;;;;;;6194884;23;20540;-89
2023/08/09 01:22:32;;;;;;;1.27;0.20;;;11.20;99.90;;;;;;6222231;23;20012;-89
2023/08/09 01:25:03;;;;;;;1.83;0.35;;;11.50;99.90;;;;;;6166164;23;20486;-89
2023/08/09 01:27:32;;;;;;;1.52;0.30;;;11.10;99.90;;;;;;6190798;23;20447;-88
2023/08/09 01:29:58;;;;;;;1.00;0.30;;;11.10;99.90;;;;;;6190636;23;20017;-88
2023/08/09 01:32:28;;;;;;;0.60;0.30;;;11.20;99.90;;;;;;6190756;23;20024;-89
2023/08/09 01:34:58;;;;;;;86.65;82.55;;;11.10;99.90;;;;;;6190881;23;20025;-90
2023/08/09 01:37:49;;;;;;;167.18;157.43;;;11.70;99.90;;;;;;6189777;23;20020;-88
2023/08/09 01:40:17;;;;;;;65.78;62.25;;;11.00;99.90;;;;;;6190601;23;20447;-89
2023/08/09 01:42:44;;;;;;;131.52;123.60;;;11.00;99.90;;;;;;6190609;23;20013;-88
2023/08/09 01:45:11;;;;;;;178.30;164.95;;;11.50;99.90;;;;;;6216908;23;20016;-89
2023/08/09 01:47:39;;;;;;;324.15;304.52;;;11.50;99.90;;;;;;6190350;23;20176;-88
2023/08/09 01:50:06;;;;;;;250.75;236.82;;;11.00;99.90;;;;;;6190534;23;20024;-89
2023/08/09 01:52:32;;;;;;;202.18;190.35;;;11.00;99.90;;;;;;6190435;23;20017;-89
2023/08/09 01:54:58;;;;;;;164.23;156.48;;;11.00;99.90;;;;;;6216865;23;20028;-88
2023/08/09 01:57:24;;;;;;;338.20;317.63;;;11.00;99.90;;;;;;6190304;23;20012;-88
2023/08/09 01:59:50;;;;;;;182.18;173.30;;;11.00;99.90;;;;;;6216988;23;20025;-88
2023/08/09 02:02:18;;;;;;;537.63;504.58;;;11.00;99.90;;;;;;6190907;23;20019;-88
2023/08/09 02:04:44;;;;;;;248.95;235.85;;;11.00;99.90;;;;;;6189989;23;20020;-89
2023/08/09 02:07:10;;;;;;;535.25;501.83;;;11.00;99.90;;;;;;6190115;23;20009;-88
2023/08/09 02:09:36;;;;;;;471.98;444.88;;;11.50;99.90;;;;;;6190190;23;20188;-88
2023/08/09 02:12:06;;;;;;;278.08;262.10;;;11.30;99.90;;;;;;6165228;23;20095;-89
2023/08/09 02:14:32;;;;;;;464.70;438.00;;;10.90;99.90;;;;;;6190142;23;20086;-89
2023/08/09 02:16:59;;;;;;;354.33;333.17;;;10.90;99.90;;;;;;6190305;23;20024;-89
2023/08/09 02:23:27;;;;;;;214.73;204.13;;;10.90;99.90;;;;;;6216658;23;20446;-88
2023/08/09 02:25:53;;;;;;;227.63;216.30;;;10.80;99.90;;;;;;6216700;23;20021;-88
2023/08/09 02:28:19;;;;;;;232.18;220.48;;;11.30;99.90;;;;;;6190164;23;20028;-88
2023/08/09 02:30:45;;;;;;;240.32;227.70;;;10.90;99.90;;;;;;6190283;23;20343;-89
2023/08/09 02:33:11;;;;;;;221.57;210.40;;;11.30;99.90;;;;;;6216739;23;20048;-89
2023/08/09 02:35:56;;;;;;;407.80;385.15;;;11.50;99.90;;;;;;6216812;23;20261;-88
2023/08/09 02:38:23;;;;;;;234.52;222.27;;;11.10;99.90;;;;;;6165540;23;20016;-89
2023/08/09 02:40:49;;;;;;;247.23;233.77;;;10.90;99.90;;;;;;6216676;23;20071;-88
2023/08/09 02:43:18;;;;;;;244.57;231.30;;;11.50;99.90;;;;;;6189963;23;20017;-89
2023/08/09 02:45:47;;;;;;;454.27;428.52;;;11.60;99.90;;;;;;6217109;23;20040;-89
2023/08/09 02:48:13;;;;;;;228.07;215.60;;;11.30;99.90;;;;;;6190023;23;20352;-89
2023/08/09 02:50:39;;;;;;;473.25;445.05;;;11.00;99.90;;;;;;6216736;23;20017;-89
2023/08/09 02:53:16;;;;;;;;;;;;;;;;;;;;;
2023/08/09 02:55:43;;;;;;;227.77;216.13;;;10.80;99.90;;;;;;6184364;23;20017;-89
2023/08/09 02:58:12;;;;;;;238.20;225.88;;;11.40;99.90;;;;;;6216889;23;20013;-89
2023/08/09 03:00:38;;;;;;;227.18;214.93;;;10.90;99.90;;;;;;6215013;23;20021;-89
2023/08/09 03:03:07;;;;;;;253.38;238.05;;;11.10;99.90;;;;;;6190403;23;20013;-88
2023/08/09 03:05:32;;;;;;;203.98;192.50;;;10.70;99.90;;;;;;6190430;23;20082;-89
2023/08/09 03:07:59;;;;;;;86.18;81.05;;;10.70;99.90;;;;;;6216672;23;20025;-89
2023/08/09 03:10:25;;;;;;;146.32;139.60;;;10.70;99.90;;;;;;6189628;23;20024;-89
2023/08/09 03:12:50;;;;;;;135.43;129.23;;;11.30;99.90;;;;;;6164596;23;20052;-88
2023/08/09 03:15:16;;;;;;;291.95;276.33;;;11.00;99.90;;;;;;6164956;23;20039;-88
2023/08/09 03:17:45;;;;;;;149.23;142.25;;;10.70;99.90;;;;;;6216060;23;20017;-89
2023/08/09 03:20:14;;;;;;;349.88;330.52;;;10.70;99.90;;;;;;6214557;23;20024;-88
2023/08/09 03:22:42;;;;;;;117.63;112.00;;;10.60;99.90;;;;;;6189779;23;20020;-88
2023/08/09 03:25:12;;;;;;;331.75;313.83;;;10.60;99.90;;;;;;6189224;23;20091;-89
2023/08/09 03:27:38;;;;;;;156.77;149.43;;;10.60;99.90;;;;;;6216428;23;20039;-89
2023/08/09 03:30:05;;;;;;;145.27;138.50;;;11.30;99.90;;;;;;6189212;23;20013;-88
2023/08/09 03:32:31;;;;;;;164.38;156.70;;;10.60;99.90;;;;;;6216239;23;20017;-89
2023/08/09 03:34:57;;;;;;;147.38;140.55;;;10.60;99.90;;;;;;6189303;23;20360;-89
2023/08/09 03:37:25;;;;;;;321.45;303.48;;;10.60;99.90;;;;;;6189192;23;20017;-88
2023/08/09 03:39:51;;;;;;;122.90;116.70;;;10.50;99.90;;;;;;6189305;23;20044;-89
2023/08/09 03:42:16;;;;;;;114.15;108.47;;;10.50;99.90;;;;;;6216122;23;20039;-88
2023/08/09 03:44:42;;;;;;;138.80;131.57;;;10.80;99.90;;;;;;6164786;23;20086;-89
2023/08/09 03:47:08;;;;;;;330.08;311.98;;;10.50;99.90;;;;;;6189033;23;20047;-89
2023/08/09 03:49:34;;;;;;;139.48;132.25;;;11.00;99.90;;;;;;6189177;23;20016;-89
2023/08/09 03:51:59;;;;;;;157.50;149.52;;;10.50;99.90;;;;;;6189724;23;20017;-89
2023/08/09 03:54:25;;;;;;;351.40;331.92;;;11.10;99.90;;;;;;6189298;23;20118;-89
2023/08/09 03:56:51;;;;;;;154.25;146.60;;;10.40;99.90;;;;;;6189212;23;20044;-89
2023/08/09 03:59:17;;;;;;;167.50;159.05;;;10.50;99.90;;;;;;6188912;23;20123;-88
2023/08/09 04:01:43;;;;;;;211.30;199.73;;;11.20;99.90;;;;;;6189395;23;20067;-87
2023/08/09 04:04:08;;;;;;;200.57;190.27;;;10.90;99.90;;;;;;6215922;23;20016;-88
2023/08/09 04:06:34;;;;;;;447.67;420.92;;;10.50;99.90;;;;;;6189153;23;20394;-87
2023/08/09 04:09:01;;;;;;;416.15;391.73;;;10.40;99.90;;;;;;6164039;23;20031;-88
2023/08/09 04:11:29;;;;;;;206.00;194.35;;;10.50;99.90;;;;;;6189007;23;20027;-88
2023/08/09 04:13:55;;;;;;;229.18;216.40;;;10.40;99.90;;;;;;6215593;23;20443;-87
2023/08/09 04:16:20;;;;;;;252.82;237.35;;;10.70;99.90;;;;;;6215891;23;20024;-87
2023/08/09 04:18:46;;;;;;;444.98;418.52;;;10.90;99.90;;;;;;6188911;23;20013;-87
2023/08/09 04:21:12;;;;;;;233.27;219.65;;;10.60;99.90;;;;;;6215381;23;20059;-87
2023/08/09 04:23:37;;;;;;;464.45;435.60;;;10.80;99.90;;;;;;6189965;23;20016;-88
2023/08/09 04:26:03;;;;;;;256.77;240.35;;;10.50;99.90;;;;;;6215649;23;20009;-88
2023/08/09 04:28:32;;;;;;;255.13;238.48;;;10.50;99.90;;;;;;6189260;23;20024;-88
2023/08/09 04:30:58;;;;;;;256.60;240.80;;;10.50;99.90;;;;;;6189260;23;20335;-88
2023/08/09 04:33:26;;;;;;;484.23;452.75;;;10.50;99.90;;;;;;6188825;23;20035;-88
2023/08/09 04:35:52;;;;;;;274.90;256.52;;;10.50;99.90;;;;;;6164073;23;20017;-88
2023/08/09 04:38:19;;;;;;;524.15;486.55;;;11.20;99.90;;;;;;6188985;23;20055;-87
2023/08/09 04:40:45;;;;;;;526.67;489.08;;;10.50;99.90;;;;;;6215374;23;20017;-87
2023/08/09 04:43:11;;;;;;;511.98;474.90;;;10.50;99.90;;;;;;6215985;23;20019;-87
2023/08/09 04:45:39;;;;;;;503.23;466.83;;;10.50;99.90;;;;;;6188794;23;20021;-87
2023/08/09 04:48:05;;;;;;;523.60;486.27;;;11.20;99.90;;;;;;6188712;23;20021;-87
2023/08/09 04:50:32;;;;;;;290.02;268.48;;;10.60;99.90;;;;;;6188477;23;20335;-88
2023/08/09 04:52:58;;;;;;;283.58;262.88;;;10.80;99.90;;;;;;6189348;23;20052;-88
2023/08/09 04:55:24;;;;;;;514.75;476.52;;;11.00;99.90;;;;;;6188963;23;20459;-87
2023/08/09 04:57:49;;;;;;;289.48;268.02;;;11.30;99.90;;;;;;6215857;23;20016;-87
2023/08/09 05:00:16;;;;;;;297.52;275.35;;;11.40;99.90;;;;;;6189335;23;20046;-87
2023/08/09 05:02:41;;;;;;;508.88;473.58;;;10.70;99.90;;;;;;6189094;23;20055;-87
2023/08/09 05:05:08;;;;;;;283.30;262.65;;;10.90;99.90;;;;;;6188780;23;20024;-87
2023/08/09 05:07:34;;;;;;;505.40;469.83;;;10.70;99.90;;;;;;6189541;23;20095;-88
2023/08/09 05:10:01;;;;;;;534.08;495.27;;;10.80;99.90;;;;;;6190325;23;20056;-87
2023/08/09 05:12:27;;;;;;;282.58;262.08;;;11.40;99.90;;;;;;6216525;23;20044;-86
2023/08/09 05:14:53;;;;;;;515.58;478.23;;;10.80;99.90;;;;;;6215517;23;20436;-85
2023/08/09 05:17:18;;;;;;;507.42;471.33;;;11.20;99.90;;;;;;6215474;23;20013;-86
2023/08/09 05:19:44;;;;;;;310.25;284.05;;;11.50;99.90;;;;;;6188513;23;20071;-84
2023/08/09 05:22:10;;;;;;;304.70;278.90;;;11.40;99.90;;;;;;6215156;23;20761;-86
2023/08/09 05:24:36;;;;;;;296.38;272.05;;;11.40;99.90;;;;;;6188751;23;20032;-88
2023/08/09 05:27:02;;;;;;;534.35;490.10;;;11.10;99.90;;;;;;6188143;23;20317;-85
2023/08/09 05:29:27;;;;;;;325.65;294.20;;;11.10;99.90;;;;;;6188845;23;20071;-86
2023/08/09 05:31:53;;;;;;;532.90;489.23;;;11.50;99.90;;;;;;6189413;23;20055;-85
2023/08/09 05:34:19;;;;;;;335.75;301.67;;;11.70;99.90;;;;;;6190683;23;20012;-85
2023/08/09 05:36:45;;;;;;;336.75;301.08;;;12.00;99.90;;;;;;6190334;23;20462;-86
2023/08/09 05:39:12;;;;;;;333.27;297.98;;;11.50;99.90;;;;;;6214648;23;20015;-85
2023/08/09 05:41:38;;;;;;;508.50;466.33;;;11.90;99.90;;;;;;6215883;23;20066;-84
2023/08/09 05:44:04;;;;;;;299.30;270.83;;;12.20;99.90;;;;;;6217060;23;20347;-83
2023/08/09 05:46:30;;;;;;;574.50;524.13;;;11.80;99.90;;;;;;6190094;23;20016;-84
2023/08/09 05:48:56;;;;;;;567.88;516.72;;;12.40;99.90;;;;;;6190125;23;20103;-85
2023/08/09 05:51:22;;;;;;;380.52;329.83;;;12.10;99.90;;;;;;6189918;23;20096;-84
2023/08/09 05:53:47;;;;;;;404.02;336.88;;;12.20;99.90;;;;;;6216526;23;20035;-84
2023/08/09 05:56:13;;;;;;;348.27;312.17;;;12.80;99.90;;;;;;6190134;23;20012;-85
2023/08/09 05:58:39;;;;;;;592.55;539.20;;;12.90;99.90;;;;;;6190342;23;20024;-84
2023/08/09 06:01:08;;;;;;;0.55;0.30;;;12.60;99.90;;;;;;6190592;23;20070;-84
2023/08/09 06:03:39;;;;;;;0.50;0.20;;;12.80;99.90;;;;;;6216977;23;20020;-84
2023/08/09 06:06:08;;;;;;;0.82;0.30;;;13.00;99.90;;;;;;6189821;23;20017;-84
2023/08/09 06:08:35;;;;;;;0.65;0.20;;;13.00;99.90;;;;;;6190100;23;20024;-84
2023/08/09 06:11:01;;;;;;;0.28;0.28;;;13.20;99.90;;;;;;6189898;23;20024;-84
2023/08/09 06:13:27;;;;;;;0.20;0.20;;;13.10;99.90;;;;;;6216438;23;20120;-85
2023/08/09 06:15:52;;;;;;;1.38;0.20;;;13.40;99.90;;;;;;6165139;23;20017;-85
2023/08/09 06:18:18;;;;;;;1.65;0.30;;;13.60;99.90;;;;;;6189375;23;20086;-84
2023/08/09 06:20:44;;;;;;;0.55;0.30;;;13.70;99.90;;;;;;6214430;23;20020;-85
2023/08/09 06:23:10;;;;;;;0.75;0.15;;;13.90;99.90;;;;;;6189608;23;20015;-83
2023/08/09 06:25:37;;;;;;;3.35;0.28;;;14.00;99.90;;;;;;6189968;23;20012;-87
2023/08/09 06:28:03;;;;;;;1.77;0.20;;;14.20;99.90;;;;;;6189729;23;20021;-84
2023/08/09 06:30:29;;;;;;;0.47;0.10;;;14.30;99.90;;;;;;6189724;23;20013;-84
2023/08/09 06:32:54;;;;;;;2.72;0.20;;;14.70;99.90;;;;;;6189728;23;20048;-86
2023/08/09 06:35:20;;;;;;;1.95;0.65;;;14.60;99.90;;;;;;6214618;23;20016;-85
2023/08/09 06:37:47;;;;;;;1.17;0.40;;;14.70;99.90;;;;;;6215258;23;20040;-85
2023/08/09 06:40:16;;;;;;;0.95;0.30;;;14.90;99.90;;;;;;6189593;23;20012;-85
2023/08/09 06:42:42;;;;;;;1.40;0.30;;;15.10;99.90;;;;;;6189208;23;20027;-84
2023/08/09 06:45:08;;;;;;;1.48;0.25;;;15.20;99.90;;;;;;6215061;23;20075;-86
2023/08/09 06:47:34;;;;;;;1.13;0.30;;;15.30;99.90;;;;;;6189743;23;20017;-85
2023/08/09 06:50:06;;;;;;;1.55;0.68;;;15.50;99.90;;;;;;6216581;23;20017;-83
2023/08/09 06:52:38;;;;;;;5.38;0.40;;;16.00;99.90;;;;;;6216614;23;20012;-83
2023/08/09 06:55:08;;;;;;;0.75;0.20;;;15.80;99.90;;;;;;6189219;23;20028;-84
2023/08/09 06:57:36;;;;;;;1.13;0.35;;;16.00;99.90;;;;;;6216337;23;20048;-84
2023/08/09 07:00:05;;;;;;;0.50;0.30;;;16.10;99.90;;;;;;6189629;23;20016;-86
2023/08/09 07:02:32;;;;;;;2.28;0.40;;;16.30;99.90;;;;;;6189690;23;20013;-85
2023/08/09 07:05:02;;;;;;;0.80;0.30;;;16.40;99.90;;;;;;6189437;23;20020;-84
2023/08/09 07:07:28;;;;;;;1.50;0.30;;;16.60;99.90;;;;;;6189601;23;20027;-84
2023/08/09 07:09:55;;;;;;;0.20;0.17;;;16.80;99.90;;;;;;6215608;23;20071;-83
2023/08/09 07:12:21;;;;;;;0.40;0.15;;;16.90;99.90;;;;;;6216040;23;20032;-86
2023/08/09 07:14:47;;;;;;;0.70;0.30;;;17.10;99.90;;;;;;6189430;23;20565;-85
2023/08/09 07:17:12;;;;;;;0.95;0.40;;;17.30;99.90;;;;;;6189348;23;20131;-85
2023/08/09 07:19:38;;;;;;;0.52;0.28;;;17.40;99.90;;;;;;6189298;23;20051;-84
2023/08/09 07:22:04;;;;;;;0.52;0.20;;;17.60;99.90;;;;;;6164589;23;20004;-87
2023/08/09 07:24:29;;;;;;;0.30;0.20;;;17.70;99.90;;;;;;6215984;23;20021;-86
2023/08/09 07:26:55;;;;;;;2.10;0.35;;;17.90;99.90;;;;;;6189610;23;20017;-85
2023/08/09 07:29:21;;;;;;;0.85;0.40;;;18.10;99.90;;;;;;6216040;23;20020;-85
2023/08/09 07:31:46;;;;;;;0.75;0.40;;;18.30;99.90;;;;;;6189279;23;20388;-86
2023/08/09 07:34:12;;;;;;;1.05;0.30;;;18.40;99.90;;;;;;6215648;23;20063;-86
2023/08/09 07:36:38;;;;;;;0.60;0.20;;;18.60;99.90;;;;;;6188958;23;20017;-86
2023/08/09 07:39:04;;;;;;;1.17;0.20;;;18.70;99.90;;;;;;6214590;23;20009;-86
2023/08/09 07:41:29;;;;;;;0.20;0.15;;;18.90;99.90;;;;;;6215643;23;20036;-86
2023/08/09 07:43:57;;;;;;;1.65;0.30;;;19.00;99.90;;;;;;6164334;23;20439;-86
2023/08/09 07:46:23;;;;;;;3.08;0.22;;;19.20;99.90;;;;;;6189885;23;20443;-85
2023/08/09 07:48:51;;;;;;;1.58;0.30;;;19.30;99.90;;;;;;6216044;23;20020;-85
2023/08/09 07:51:17;;;;;;;0.85;0.30;;;19.40;99.90;;;;;;6215900;23;20017;-85
2023/08/09 07:53:44;;;;;;;0.20;0.10;;;19.50;99.90;;;;;;6216071;23;20487;-86
2023/08/09 07:56:10;;;;;;;1.02;0.20;;;19.70;99.90;;;;;;6188657;23;20017;-86
2023/08/09 07:58:35;;;;;;;2.05;0.47;;;19.80;99.90;;;;;;6164236;23;20068;-86
2023/08/09 08:01:04;;;;;;;3.75;0.30;;;20.00;99.90;;;;;;6215903;23;20092;-86
2023/08/09 08:03:31;;;;;;;0.40;0.13;;;20.20;99.90;;;;;;6214022;23;20332;-86
2023/08/09 08:05:57;;;;;;;0.47;0.20;;;20.30;99.90;;;;;;6188676;23;20017;-85
2023/08/09 08:08:22;;;;;;;0.43;0.20;;;20.50;99.90;;;;;;6215443;23;20435;-86
2023/08/09 08:10:48;;;;;;;0.40;0.20;;;20.60;99.90;;;;;;6215429;23;20023;-86
2023/08/09 08:13:14;;;;;;;1.95;0.30;;;20.70;99.90;;;;;;6188812;23;20021;-86
2023/08/09 08:15:40;;;;;;;1.13;0.20;;;20.80;99.90;;;;;;6188765;23;20013;-86
2023/08/09 08:18:06;;;;;;;1.10;0.20;;;20.80;99.90;;;;;;6214220;23;20016;-86
2023/08/09 08:20:32;;;;;;;1.10;0.28;;;20.90;99.90;;;;;;6188940;23;20020;-86
2023/08/09 08:22:58;;;;;;;2.03;0.20;;;21.00;99.90;;;;;;6189472;23;20399;-86
2023/08/09 08:25:25;;;;;;;2.28;0.20;;;21.20;99.90;;;;;;6188936;23;20450;-86
2023/08/09 08:27:50;;;;;;;3.03;0.20;;;21.30;99.90;;;;;;6189164;23;20016;-86
2023/08/09 08:30:18;;;;;;;3.70;0.47;;;21.60;99.90;;;;;;6215786;23;20021;-86
2023/08/09 08:32:48;;;;;;;1.75;0.20;;;21.70;99.90;;;;;;6215824;23;20334;-86
2023/08/09 08:35:19;;;;;;;1.38;0.13;;;21.90;99.90;;;;;;6215752;23;20075;-86
2023/08/09 08:37:46;;;;;;;3.83;0.22;;;21.80;99.90;;;;;;6189095;23;20051;-86
2023/08/09 08:40:17;;;;;;;2.65;0.28;;;21.40;99.90;;;;;;6188972;23;20058;-86
2023/08/09 08:42:49;;;;;;;0.85;0.20;;;21.30;99.90;;;;;;6188570;23;20445;-86
2023/08/09 08:45:16;;;;;;;1.35;0.10;;;21.30;99.90;;;;;;6213914;23;20110;-86
2023/08/09 08:47:43;;;;;;;0.95;0.20;;;21.50;99.90;;;;;;6163930;23;20022;-87
2023/08/09 08:50:10;;;;;;;2.75;0.22;;;21.60;99.90;;;;;;6164028;23;20021;-86
2023/08/09 08:52:38;;;;;;;2.15;0.40;;;21.80;99.90;;;;;;6189178;23;20040;-86
2023/08/09 08:55:11;;;;;;;2.08;0.20;;;22.20;99.90;;;;;;6215605;23;20103;-86
2023/08/09 08:57:38;;;;;;;1.33;0.20;;;22.20;99.90;;;;;;6214026;23;20027;-85
2023/08/09 09:00:08;;;;;;;1.30;0.00;;;22.20;99.90;;;;;;6216752;23;20024;-86
2023/08/09 09:02:38;;;;;;;1.77;0.30;;;22.20;99.90;;;;;;6214211;23;20020;-86
2023/08/09 09:05:06;;;;;;;0.63;0.20;;;22.30;99.90;;;;;;6188855;23;20048;-85
2023/08/09 09:07:33;;;;;;;1.23;0.30;;;22.30;99.80;;;;;;6190497;23;20027;-85
2023/08/09 09:10:00;;;;;;;0.77;0.20;;;22.10;99.90;;;;;;6216986;23;20027;-86
2023/08/09 09:12:26;;;;;;;0.68;0.20;;;22.10;99.90;;;;;;6217322;23;20025;-86
2023/08/09 09:14:52;;;;;;;0.30;0.10;;;22.20;99.90;;;;;;6190422;23;20048;-85
2023/08/09 09:17:21;;;;;;;5.65;0.40;;;22.40;99.90;;;;;;6217118;23;20439;-85
2023/08/09 09:19:48;;;;;;;0.68;0.20;;;22.50;99.90;;;;;;6215489;23;20355;-86
2023/08/09 09:22:46;;;;;;;0.60;0.20;;;22.50;97.80;;;;;;6190814;23;20013;-86
2023/08/09 09:25:14;;;;;;;1.60;0.10;;;22.50;97.10;;;;;;6125398;23;20017;-86
2023/08/09 09:27:42;;;;;;;0.40;0.20;;;22.60;98.80;;;;;;6100987;23;20501;-86
2023/08/09 09:30:12;;;;;;;1.20;0.30;;;22.80;99.20;;;;;;6100528;23;20027;-86
2023/08/09 09:33:04;;;;;;;0.30;0.20;;;22.90;98.70;;;;;;6125411;23;20122;-86
2023/08/09 09:35:32;;;;;;;0.82;0.17;;;23.00;99.70;;;;;;6100870;23;20025;-86
2023/08/09 09:37:59;;;;;;;0.63;0.28;;;23.50;99.40;;;;;;6101117;23;20025;-86
2023/08/09 09:40:29;;;;;;;1.10;0.30;;;23.40;99.90;;;;;;6100747;23;20108;-86
2023/08/09 09:42:59;;;;;;;0.65;0.10;;;23.30;99.60;;;;;;6125156;23;20014;-86
2023/08/09 09:45:27;;;;;;;1.23;0.20;;;23.10;98.70;;;;;;6125336;23;20065;-86
2023/08/09 09:47:54;;;;;;;0.77;0.28;;;23.00;98.80;;;;;;6125146;23;20089;-86
2023/08/09 09:50:28;;;;;;;0.55;0.20;;;22.90;98.80;;;;;;6100402;23;20094;-86
2023/08/09 09:52:54;;;;;;;0.63;0.25;;;22.60;98.70;;;;;;6100681;23;20018;-86
2023/08/09 09:55:27;;;;;;;0.68;0.30;;;22.50;99.90;;;;;;6100335;23;20021;-85
2023/08/09 09:57:54;;;;;;;1.20;0.30;;;22.70;98.80;;;;;;6100724;23;20024;-85
2023/08/09 10:00:22;;;;;;;5.00;2.92;;;22.80;99.20;;;;;;6129362;23;20455;-85
2023/08/09 10:02:51;;;;;;;0.55;0.22;;;23.00;99.60;;;;;;6190675;23;20008;-86
2023/08/09 10:05:44;;;;;;;1.05;0.22;;;23.20;99.30;;;;;;6217235;23;20024;-85
2023/08/09 10:08:12;;;;;;;0.70;0.20;;;23.20;98.80;;;;;;6186435;23;20445;-86
2023/08/09 10:10:41;;;;;;;1.73;0.65;;;23.30;98.80;;;;;;6189797;23;20024;-86
2023/08/09 10:13:09;;;;;;;0.50;0.20;;;23.60;99.50;;;;;;6189921;23;20439;-83
2023/08/09 10:15:40;;;;;;;0.47;0.30;;;23.90;99.00;;;;;;6190452;23;20079;-89
2023/08/09 10:18:10;;;;;;;0.52;0.20;;;24.00;98.60;;;;;;6215292;23;20016;-87
2023/08/09 10:20:40;;;;;;;1.52;0.32;;;24.00;97.00;;;;;;6190072;23;20096;-87
2023/08/09 10:23:06;;;;;;;0.75;0.17;;;23.50;97.50;;;;;;6164617;23;20386;-86
2023/08/09 10:25:44;;;;;;;1.00;0.20;;;23.30;97.60;;;;;;6189845;23;20099;-85
2023/08/09 10:28:10;;;;;;;0.30;0.20;;;23.50;98.00;;;;;;6215428;23;20017;-85
2023/08/09 10:30:54;;;;;;;0.63;0.20;;;23.80;98.50;;;;;;6216561;23;20340;-85
2023/08/09 10:33:20;;;;;;;2.78;0.20;;;23.80;98.20;;;;;;6189719;23;20021;-86
2023/08/09 10:35:52;;;;;;;0.35;0.30;;;23.60;97.90;;;;;;6216416;23;20017;-86
2023/08/09 10:38:44;;;;;;;0.70;0.13;;;23.50;97.10;;;;;;6189244;23;20021;-85
2023/08/09 10:41:11;;;;;;;1.13;0.40;;;23.20;97.30;;;;;;6189511;23;20021;-86
2023/08/09 10:43:38;;;;;;;0.50;0.20;;;23.00;97.60;;;;;;6189658;23;20020;-86
2023/08/09 10:46:21;;;;;;;0.68;0.20;;;23.10;98.10;;;;;;6189664;23;20020;-89
2023/08/09 10:49:01;;;;;;;1.95;0.30;;;23.00;97.90;;;;;;6189881;23;20329;-85
2023/08/09 10:51:30;;;;;;;1.48;0.20;;;23.00;97.40;;;;;;6189487;23;20451;-85
2023/08/09 10:54:03;;;;;;;0.43;0.20;;;23.00;98.50;;;;;;6189341;23;20077;-86
2023/08/09 10:56:33;;;;;;;3.20;0.28;;;23.30;97.50;;;;;;6216596;23;20513;-86
2023/08/09 10:59:07;;;;;;;1.20;0.20;;;23.30;98.00;;;;;;6214690;23;20021;-86
2023/08/09 11:01:34;;;;;;;0.40;0.10;;;23.50;98.20;;;;;;6189882;23;20020;-86
2023/08/09 11:04:03;;;;;;;1.60;0.30;;;23.60;97.50;;;;;;6214986;23;20086;-86
2023/08/09 11:06:49;;;;;;;2.53;0.20;;;23.60;96.30;;;;;;6216138;23;20017;-87
2023/08/09 11:09:17;;;;;;;0.82;0.28;;;23.60;96.90;;;;;;6189655;23;20029;-87
2023/08/09 11:11:45;;;;;;;2.28;0.20;;;23.80;95.70;;;;;;6164131;23;20029;-87
2023/08/09 11:14:12;;;;;;;0.38;0.20;;;24.00;96.20;;;;;;6214993;23;20078;-87
2023/08/09 11:16:38;;;;;;;1.25;0.20;;;24.20;95.60;;;;;;6189797;23;20024;-87
2023/08/09 11:19:05;;;;;;;1.10;0.30;;;24.30;94.90;;;;;;6190044;23;20024;-87
2023/08/09 11:21:43;;;;;;;0.65;0.10;;;24.60;95.00;;;;;;6189314;23;20016;-87
2023/08/09 11:24:11;;;;;;;0.57;0.20;;;24.80;94.40;;;;;;6164953;23;20009;-87
2023/08/09 11:26:39;;;;;;;1.05;0.20;;;24.70;94.70;;;;;;6216367;23;20020;-87
2023/08/09 11:29:06;;;;;;;1.33;0.20;;;24.70;95.80;;;;;;6190364;23;20016;-87
2023/08/09 11:31:41;;;;;;;0.82;0.17;;;24.90;94.70;;;;;;6190379;23;20103;-86
2023/08/09 11:34:07;;;;;;;0.30;0.20;;;25.00;94.90;;;;;;6189453;23;20459;-87
2023/08/09 11:36:33;;;;;;;0.43;0.17;;;25.00;94.20;;;;;;6189159;23;20028;-87
2023/08/09 11:38:59;;;;;;;1.95;0.20;;;24.90;93.10;;;;;;6216204;23;20013;-87
2023/08/09 11:41:26;;;;;;;0.73;0.30;;;24.60;93.70;;;;;;6216245;23;20024;-88
2023/08/09 11:43:52;;;;;;;0.90;0.17;;;24.40;93.30;;;;;;6189212;23;20028;-87
2023/08/09 11:46:22;;;;;;;1.05;0.30;;;24.40;94.20;;;;;;6214086;23;20015;-86
2023/08/09 11:48:50;;;;;;;1.05;0.17;;;24.50;94.80;;;;;;6215977;23;20016;-86
2023/08/09 11:51:20;;;;;;;1.40;0.17;;;24.80;94.10;;;;;;6189375;23;20013;-86
2023/08/09 11:53:49;;;;;;;0.35;0.20;;;24.90;93.90;;;;;;6189232;23;20343;-86
2023/08/09 11:56:18;;;;;;;1.35;0.20;;;25.10;94.30;;;;;;6218133;23;20020;-86
2023/08/09 11:58:46;;;;;;;2.33;0.20;;;25.20;91.90;;;;;;6192869;23;20023;-87
2023/08/09 12:01:24;;;;;;;1.67;0.22;;;25.00;92.40;;;;;;6193488;23;20028;-87
2023/08/09 12:03:52;;;;;;;1.63;0.20;;;24.60;92.80;;;;;;6218572;23;20021;-85
2023/08/09 12:06:32;;;;;;;2.67;0.20;;;24.20;92.40;;;;;;6193311;23;20027;-87
2023/08/09 12:09:00;;;;;;;1.08;0.20;;;24.00;92.70;;;;;;6217643;23;20020;-87
2023/08/09 12:11:25;;;;;;;0.98;0.20;;;23.80;92.90;;;;;;6189684;23;20032;-86
2023/08/09 12:13:51;;;;;;;0.43;0.20;;;23.60;93.50;;;;;;6189572;23;20432;-86
2023/08/09 12:16:17;;;;;;;1.75;0.38;;;23.50;93.60;;;;;;6189581;23;20067;-86
2023/08/09 12:18:42;;;;;;;0.77;0.15;;;23.70;93.10;;;;;;6217923;23;20012;-86
2023/08/09 12:21:08;;;;;;;0.63;0.20;;;23.70;93.20;;;;;;6218094;23;20470;-85
2023/08/09 12:23:38;;;;;;;1.10;0.28;;;23.80;93.60;;;;;;6193319;23;20104;-86
2023/08/09 12:26:07;;;;;;;1.17;0.15;;;23.90;92.90;;;;;;6193053;23;20015;-87
2023/08/09 12:28:33;;;;;;;0.98;0.30;;;23.80;92.20;;;;;;6219022;23;20009;-86
2023/08/09 12:30:59;;;;;;;0.90;0.15;;;23.80;93.00;;;;;;6192525;23;20016;-86
2023/08/09 12:33:27;;;;;;;0.60;0.10;;;23.80;92.40;;;;;;6193385;23;20052;-87
2023/08/09 12:35:52;;;;;;;0.57;0.20;;;24.20;93.20;;;;;;6192301;23;20020;-86
2023/08/09 12:38:18;;;;;;;1.65;0.20;;;24.20;92.80;;;;;;6220036;23;20017;-87
2023/08/09 12:40:44;;;;;;;1.55;0.50;;;24.40;92.60;;;;;;6220850;23;20024;-87